Time,TemperatureF,DewpointF,PressureIn,WindDirection,WindDirectionDegrees,WindSpeedMPH,WindSpeedGustMPH,Humidity,HourlyPrecipIn,Conditions,Clouds,dailyrainin,SoftwareType,DateUTC
2013-04-18 00:00:00,40.1,39.8,29.70,NNE,12,8.0,21.0,99,0.00,RA,RA,0.00,WeatherDisplay:10.37,2013-04-18 05:00:00,
2013-04-18 00:06:00,40.1,39.8,29.72,NW,318,10.0,15.0,99,0.00,RA,RA,0.00,WeatherDisplay:10.37,2013-04-18 05:06:00,
2013-04-18 00:12:00,40.1,39.5,29.72,WNW,288,8.0,14.0,98,0.00,OVC,OVC,0.00,WeatherDisplay:10.37,2013-04-18 05:12:00,
2013-04-18 00:18:00,40.1,39.5,29.73,NW,305,12.0,15.0,98,0.00,OVC,OVC,0.00,WeatherDisplay:10.37,2013-04-18 05:18:00,
2013-04-18 00:24:00,40.1,39.5,29.72,WNW,295,9.0,15.0,98,0.00,OVC,OVC,0.00,WeatherDisplay:10.37,2013-04-18 05:24:00,
2013-04-18 00:30:00,40.0,39.4,29.72,North,2,12.0,14.0,98,0.00,OVC,OVC,0.00,WeatherDisplay:10.37,2013-04-18 05:30:00,
2013-04-18 00:36:00,40.0,39.4,29.72,NNW,345,9.0,12.0,98,0.00,OVC,OVC,0.00,WeatherDisplay:10.37,2013-04-18 05:36:00,
2013-04-18 00:42:00,40.0,39.4,29.72,NNE,25,8.0,16.0,98,0.00,OVC,OVC,0.00,WeatherDisplay:10.37,2013-04-18 05:42:00,
2013-04-18 00:48:00,39.8,39.2,29.72,NW,323,9.0,16.0,98,0.00,OVC,OVC,0.00,WeatherDisplay:10.37,2013-04-18 05:48:00,
2013-04-18 00:54:00,39.8,39.2,29.71,NNW,346,12.0,14.0,98,0.00,OVC,OVC,0.00,WeatherDisplay:10.37,2013-04-18 05:54:00,
2013-04-18 01:00:00,39.6,39.0,29.71,NNE,13,13.0,18.0,98,0.00,OVC,OVC,0.00,WeatherDisplay:10.37,2013-04-18 06:00:00,
2013-04-18 01:06:00,39.6,39.0,29.72,NNE,17,8.0,14.0,98,0.00,OVC,OVC,0.00,WeatherDisplay:10.37,2013-04-18 06:06:00,
2013-04-18 01:12:00,39.2,38.6,29.72,NW,323,13.0,23.0,98,0.01,RA,RA,0.01,WeatherDisplay:10.37,2013-04-18 06:12:00,
2013-04-18 01:18:00,39.1,38.5,29.73,North,352,9.0,13.0,98,0.00,RA,RA,0.01,WeatherDisplay:10.37,2013-04-18 06:18:00,
2013-04-18 01:24:00,39.1,38.5,29.73,WNW,285,13.0,17.0,98,0.00,RA,RA,0.02,WeatherDisplay:10.37,2013-04-18 06:24:00,
2013-04-18 01:30:00,38.9,38.6,29.73,WNW,297,15.0,19.0,99,0.00,RA,RA,0.02,WeatherDisplay:10.37,2013-04-18 06:30:00,
2013-04-18 01:36:00,38.5,38.3,29.73,NNW,335,14.0,16.0,99,0.00,OVC,OVC,0.02,WeatherDisplay:10.37,2013-04-18 06:36:00,
2013-04-18 01:42:00,38.5,38.2,29.73,NW,326,10.0,16.0,99,0.01,RA,RA,0.03,WeatherDisplay:10.37,2013-04-18 06:42:00,
2013-04-18 01:48:00,38.3,38.0,29.73,WNW,298,13.0,16.0,99,0.00,RA,RA,0.03,WeatherDisplay:10.37,2013-04-18 06:48:00,
2013-04-18 01:54:00,38.3,38.0,29.73,WNW,300,8.0,14.0,99,0.00,OVC,OVC,0.03,WeatherDisplay:10.37,2013-04-18 06:54:00,
2013-04-18 02:00:00,38.2,37.9,29.73,NW,323,9.0,15.0,99,0.00,RA,RA,0.04,WeatherDisplay:10.37,2013-04-18 07:00:00,
2013-04-18 02:06:00,38.0,37.7,29.73,NW,320,12.0,16.0,99,0.00,RA,RA,0.04,WeatherDisplay:10.37,2013-04-18 07:06:00,
2013-04-18 02:12:00,38.0,37.7,29.73,NNW,329,16.0,21.0,99,0.00,OVC,OVC,0.04,WeatherDisplay:10.37,2013-04-18 07:12:00,
2013-04-18 02:18:00,38.0,37.7,29.74,NW,307,10.0,14.0,99,0.00,OVC,OVC,0.04,WeatherDisplay:10.37,2013-04-18 07:18:00,
2013-04-18 02:24:00,38.0,37.7,29.73,WNW,290,12.0,16.0,99,0.00,OVC,OVC,0.04,WeatherDisplay:10.37,2013-04-18 07:24:00,
2013-04-18 02:30:00,38.0,37.7,29.73,WNW,290,10.0,18.0,99,0.00,OVC,OVC,0.04,WeatherDisplay:10.37,2013-04-18 07:30:00,
2013-04-18 02:36:00,38.0,37.7,29.73,NW,309,13.0,23.0,99,0.00,OVC,OVC,0.04,WeatherDisplay:10.37,2013-04-18 07:36:00,
2013-04-18 02:42:00,38.0,37.7,29.74,NW,308,9.0,14.0,99,0.00,OVC,OVC,0.04,WeatherDisplay:10.37,2013-04-18 07:42:00,
2013-04-18 02:48:00,37.8,37.5,29.73,NW,312,13.0,20.0,99,0.00,OVC,OVC,0.04,WeatherDisplay:10.37,2013-04-18 07:48:00,
2013-04-18 02:54:00,37.8,37.5,29.73,NW,320,10.0,22.0,99,0.00,OVC,OVC,0.04,WeatherDisplay:10.37,2013-04-18 07:54:00,
2013-04-18 03:00:00,37.8,37.5,29.74,WNW,293,10.0,16.0,99,0.00,OVC,OVC,0.04,WeatherDisplay:10.37,2013-04-18 08:00:00,
2013-04-18 03:06:00,37.4,37.1,29.74,NW,315,13.0,17.0,99,0.00,-RA,-RA,0.04,WeatherDisplay:10.37,2013-04-18 08:06:00,
2013-04-18 03:12:00,37.4,37.1,29.74,NW,313,7.0,16.0,99,0.00,-RA,-RA,0.04,WeatherDisplay:10.37,2013-04-18 08:12:00,
2013-04-18 03:18:00,37.3,37.0,29.75,NW,310,10.0,14.0,99,0.00,-RA,-RA,0.04,WeatherDisplay:10.37,2013-04-18 08:18:00,
2013-04-18 03:24:00,37.1,36.8,29.75,WNW,288,16.0,23.0,99,0.00,-RA,-RA,0.04,WeatherDisplay:10.37,2013-04-18 08:24:00,
2013-04-18 03:30:00,37.1,36.8,29.76,NW,306,17.0,22.0,99,0.01,-RA,-RA,0.05,WeatherDisplay:10.37,2013-04-18 08:30:00,
2013-04-18 03:36:00,36.9,36.6,29.76,NW,305,14.0,29.0,99,0.00,-RA,-RA,0.05,WeatherDisplay:10.37,2013-04-18 08:36:00,
2013-04-18 03:42:00,36.5,36.2,29.75,West,281,14.0,21.0,99,0.00,-RA,-RA,0.05,WeatherDisplay:10.37,2013-04-18 08:42:00,
2013-04-18 03:48:00,36.4,36.1,29.75,WNW,284,18.0,28.0,99,0.00,-RA,-RA,0.05,WeatherDisplay:10.37,2013-04-18 08:48:00,
2013-04-18 03:54:00,36.4,36.1,29.75,WNW,295,12.0,21.0,99,0.00,-RA,-RA,0.05,WeatherDisplay:10.37,2013-04-18 08:54:00,
2013-04-18 04:00:00,36.4,36.1,29.76,North,354,12.0,14.0,99,0.00,-RA,-RA,0.05,WeatherDisplay:10.37,2013-04-18 09:00:00,
2013-04-18 04:06:00,36.2,35.9,29.76,NW,324,15.0,22.0,99,0.00,-RA,-RA,0.05,WeatherDisplay:10.37,2013-04-18 09:06:00,
2013-04-18 04:12:00,36.0,35.7,29.76,NW,312,13.0,16.0,99,0.00,-RA,-RA,0.05,WeatherDisplay:10.37,2013-04-18 09:12:00,
2013-04-18 04:18:00,35.8,35.5,29.75,NW,326,10.0,16.0,99,0.00,-RA,-RA,0.05,WeatherDisplay:10.37,2013-04-18 09:18:00,
2013-04-18 04:24:00,35.6,35.3,29.75,WNW,302,13.0,24.0,99,0.00,-RA,-RA,0.05,WeatherDisplay:10.37,2013-04-18 09:24:00,
2013-04-18 04:30:00,35.5,35.2,29.75,NW,304,14.0,20.0,99,0.00,-RA,-RA,0.05,WeatherDisplay:10.37,2013-04-18 09:30:00,
2013-04-18 04:36:00,35.1,34.8,29.75,WNW,299,13.0,23.0,99,0.00,-RA,-RA,0.05,WeatherDisplay:10.37,2013-04-18 09:36:00,
2013-04-18 04:42:00,34.9,34.4,29.75,WNW,284,14.0,22.0,98,0.00,-RA,-RA,0.05,WeatherDisplay:10.37,2013-04-18 09:42:00,
2013-04-18 04:48:00,34.9,34.4,29.75,West,268,12.0,17.0,98,0.00,-RA,-RA,0.05,WeatherDisplay:10.37,2013-04-18 09:48:00,
2013-04-18 04:54:00,34.9,34.4,29.76,WNW,295,14.0,20.0,98,0.00,-RA,-RA,0.05,WeatherDisplay:10.37,2013-04-18 09:54:00,
2013-04-18 05:00:00,34.7,33.6,29.78,WNW,299,12.0,20.0,96,0.00,-RA,-RA,0.05,WeatherDisplay:10.37,2013-04-18 10:00:00,
2013-04-18 05:06:00,34.7,33.6,29.79,NW,314,10.0,20.0,96,0.00,-RA,-RA,0.05,WeatherDisplay:10.37,2013-04-18 10:06:00,
2013-04-18 05:12:00,34.7,33.6,29.79,WNW,296,14.0,28.0,96,0.00,-RA,-RA,0.05,WeatherDisplay:10.37,2013-04-18 10:12:00,
2013-04-18 05:18:00,34.7,33.6,29.79,WNW,295,18.0,24.0,96,0.00,-RA,-RA,0.05,WeatherDisplay:10.37,2013-04-18 10:18:00,
2013-04-18 05:24:00,34.7,33.6,29.79,NW,305,9.0,9.0,96,0.00,-RA,-RA,0.05,WeatherDisplay:10.37,2013-04-18 10:24:00,
2013-04-18 05:30:00,34.7,33.6,29.80,NW,315,16.0,20.0,96,0.00,-RA,-RA,0.05,WeatherDisplay:10.37,2013-04-18 10:30:00,
2013-04-18 05:36:00,34.7,33.4,29.80,NW,315,15.0,22.0,95,0.00,-RA,-RA,0.05,WeatherDisplay:10.37,2013-04-18 10:36:00,
2013-04-18 05:42:00,34.6,33.3,29.81,NW,315,18.0,30.0,95,0.00,-RA,-RA,0.05,WeatherDisplay:10.37,2013-04-18 10:42:00,
2013-04-18 05:48:00,34.4,33.3,29.81,NW,314,21.0,28.0,96,0.00,-RA,-RA,0.05,WeatherDisplay:10.37,2013-04-18 10:48:00,
2013-04-18 05:54:00,34.2,33.1,29.82,NW,310,7.0,15.0,96,0.00,-RA,-RA,0.05,WeatherDisplay:10.37,2013-04-18 10:54:00,
2013-04-18 06:00:00,34.1,33.1,29.82,NW,306,15.0,18.0,96,0.00,-RA,-RA,0.05,WeatherDisplay:10.37,2013-04-18 11:00:00,
2013-04-18 06:06:00,34.0,33.5,29.83,NW,312,9.0,21.0,98,0.00,-DZ,-DZ,0.05,WeatherDisplay:10.37,2013-04-18 11:06:00,
2013-04-18 06:12:00,34.0,33.5,29.83,NW,306,12.0,18.0,98,0.00,-DZ,-DZ,0.05,WeatherDisplay:10.37,2013-04-18 11:12:00,
2013-04-18 06:18:00,33.8,33.3,29.82,West,276,8.0,12.0,98,0.00,-DZ,-DZ,0.05,WeatherDisplay:10.37,2013-04-18 11:18:00,
2013-04-18 06:24:00,33.7,33.2,29.82,WNW,299,10.0,16.0,98,0.00,-DZ,-DZ,0.05,WeatherDisplay:10.37,2013-04-18 11:24:00,
2013-04-18 06:30:00,33.5,33.0,29.81,WSW,250,14.0,14.0,98,0.00,-DZ,-DZ,0.05,WeatherDisplay:10.37,2013-04-18 11:30:00,
2013-04-18 06:36:00,33.1,32.6,29.81,SSW,211,13.0,19.0,98,0.00,-DZ,-DZ,0.05,WeatherDisplay:10.37,2013-04-18 11:36:00,
2013-04-18 06:42:00,33.1,32.6,29.81,WNW,292,17.0,23.0,98,0.00,-DZ,-DZ,0.05,WeatherDisplay:10.37,2013-04-18 11:42:00,
2013-04-18 06:48:00,32.9,32.4,29.81,WNW,300,12.0,18.0,98,0.00,-DZ,-DZ,0.05,WeatherDisplay:10.37,2013-04-18 11:48:00,
2013-04-18 06:54:00,32.9,32.4,29.81,NW,312,10.0,16.0,98,0.00,-DZ,-DZ,0.05,WeatherDisplay:10.37,2013-04-18 11:54:00,
2013-04-18 07:00:00,32.9,31.8,29.81,NW,318,15.0,21.0,96,0.00,-DZ,-DZ,0.05,WeatherDisplay:10.37,2013-04-18 12:00:00,
2013-04-18 07:06:00,32.9,31.8,29.82,WNW,290,12.0,22.0,96,0.00,-DZ,-DZ,0.05,WeatherDisplay:10.37,2013-04-18 12:06:00,
2013-04-18 07:12:00,32.8,31.7,29.82,WNW,302,20.0,28.0,96,0.00,-DZ,-DZ,0.05,WeatherDisplay:10.37,2013-04-18 12:12:00,
2013-04-18 07:18:00,32.8,31.7,29.84,WNW,303,15.0,21.0,96,0.00,-DZ,-DZ,0.05,WeatherDisplay:10.37,2013-04-18 12:18:00,
2013-04-18 07:24:00,32.6,31.3,29.84,WNW,300,13.0,18.0,95,0.00,-DZ,-DZ,0.05,WeatherDisplay:10.37,2013-04-18 12:24:00,
2013-04-18 07:30:00,32.6,31.3,29.85,NW,308,15.0,29.0,95,0.00,-DZ,-DZ,0.05,WeatherDisplay:10.37,2013-04-18 12:30:00,
2013-04-18 07:36:00,32.6,31.3,29.86,NW,304,21.0,23.0,95,0.00,-DZ,-DZ,0.05,WeatherDisplay:10.37,2013-04-18 12:36:00,
2013-04-18 07:42:00,32.6,31.3,29.86,WNW,298,15.0,22.0,95,0.00,-DZ,-DZ,0.05,WeatherDisplay:10.37,2013-04-18 12:42:00,
2013-04-18 07:48:00,32.6,31.3,29.86,NW,319,20.0,26.0,95,0.00,-DZ,-DZ,0.05,WeatherDisplay:10.37,2013-04-18 12:48:00,
2013-04-18 07:54:00,32.6,31.3,29.86,NW,310,15.0,20.0,95,0.00,-DZ,-DZ,0.05,WeatherDisplay:10.37,2013-04-18 12:54:00,
2013-04-18 08:00:00,32.6,31.3,29.87,WNW,287,15.0,22.0,95,0.00,-DZ,-DZ,0.05,WeatherDisplay:10.37,2013-04-18 13:00:00,
2013-04-18 08:06:00,32.6,31.3,29.88,NW,321,15.0,25.0,95,0.00,-DZ,-DZ,0.05,WeatherDisplay:10.37,2013-04-18 13:06:00,
2013-04-18 08:12:00,32.8,31.5,29.88,NNW,330,12.0,18.0,95,0.00,-DZ,-DZ,0.05,WeatherDisplay:10.37,2013-04-18 13:12:00,
2013-04-18 08:18:00,32.9,31.6,29.88,NNW,329,18.0,28.0,95,0.00,-DZ,-DZ,0.05,WeatherDisplay:10.37,2013-04-18 13:18:00,
2013-04-18 08:24:00,33.1,31.3,29.88,WNW,298,12.0,26.0,93,0.00,-DZ,-DZ,0.05,WeatherDisplay:10.37,2013-04-18 13:24:00,
2013-04-18 08:30:00,33.3,31.7,29.88,WNW,295,13.0,21.0,94,0.00,-DZ,-DZ,0.05,WeatherDisplay:10.37,2013-04-18 13:30:00,
2013-04-18 08:36:00,33.1,31.5,29.88,NW,313,13.0,21.0,94,0.00,-DZ,-DZ,0.05,WeatherDisplay:10.37,2013-04-18 13:36:00,
2013-04-18 08:42:00,33.1,31.5,29.89,WNW,301,12.0,21.0,94,0.00,-DZ,-DZ,0.05,WeatherDisplay:10.37,2013-04-18 13:42:00,
2013-04-18 08:48:00,32.9,31.6,29.90,NW,324,17.0,25.0,95,0.00,-DZ,-DZ,0.05,WeatherDisplay:10.37,2013-04-18 13:48:00,
2013-04-18 08:54:00,32.9,31.6,29.90,NW,307,18.0,25.0,95,0.00,-DZ,-DZ,0.05,WeatherDisplay:10.37,2013-04-18 13:54:00,
2013-04-18 09:00:00,32.9,31.3,29.90,WNW,290,15.0,21.0,94,0.00,-DZ,-DZ,0.05,WeatherDisplay:10.37,2013-04-18 14:00:00,
2013-04-18 09:06:00,33.1,31.6,29.90,NW,316,9.0,24.0,94,0.00,-SN,-SN,0.05,WeatherDisplay:10.37,2013-04-18 14:06:00,
2013-04-18 09:12:00,33.3,31.5,29.90,NW,309,14.0,21.0,93,0.00,-SN,-SN,0.05,WeatherDisplay:10.37,2013-04-18 14:12:00,
2013-04-18 09:18:00,33.6,31.8,29.91,West,279,10.0,28.0,93,0.00,-SN,-SN,0.05,WeatherDisplay:10.37,2013-04-18 14:18:00,
2013-04-18 09:24:00,33.7,31.6,29.91,NW,304,13.0,24.0,92,0.00,-SN,-SN,0.05,WeatherDisplay:10.37,2013-04-18 14:24:00,
2013-04-18 09:30:00,33.8,31.4,29.91,WNW,296,10.0,20.0,91,0.00,-SN,-SN,0.05,WeatherDisplay:10.37,2013-04-18 14:30:00,
2013-04-18 09:36:00,34.0,31.6,29.91,WNW,294,16.0,19.0,91,0.00,-SN,-SN,0.05,WeatherDisplay:10.37,2013-04-18 14:36:00,
2013-04-18 09:42:00,34.1,31.2,29.91,NW,309,14.0,23.0,89,0.00,-SN,-SN,0.05,WeatherDisplay:10.37,2013-04-18 14:42:00,
2013-04-18 09:48:00,34.6,31.4,29.91,NW,317,17.0,20.0,88,0.00,-SN,-SN,0.05,WeatherDisplay:10.37,2013-04-18 14:48:00,
2013-04-18 09:54:00,34.6,31.4,29.92,West,276,14.0,14.0,88,0.00,-SN,-SN,0.05,WeatherDisplay:10.37,2013-04-18 14:54:00,
2013-04-18 10:00:00,34.7,31.5,29.92,WNW,289,15.0,17.0,88,0.00,-SN,-SN,0.05,WeatherDisplay:10.37,2013-04-18 15:00:00,
2013-04-18 10:06:00,34.7,31.5,29.93,WNW,288,15.0,15.0,88,0.00,-SN,-SN,0.05,WeatherDisplay:10.37,2013-04-18 15:06:00,
2013-04-18 10:12:00,34.4,30.9,29.93,West,271,18.0,26.0,87,0.00,-SN,-SN,0.05,WeatherDisplay:10.37,2013-04-18 15:12:00,
2013-04-18 10:18:00,34.9,31.1,29.94,WNW,294,16.0,22.0,86,0.00,-SN,-SN,0.05,WeatherDisplay:10.37,2013-04-18 15:18:00,
2013-04-18 10:24:00,34.9,31.1,29.94,WNW,294,21.0,25.0,86,0.00,-SN,-SN,0.05,WeatherDisplay:10.37,2013-04-18 15:24:00,
2013-04-18 10:30:00,35.4,31.7,29.94,NW,306,13.0,19.0,86,0.00,-SN,-SN,0.05,WeatherDisplay:10.37,2013-04-18 15:30:00,
2013-04-18 10:36:00,35.9,31.6,29.94,WNW,288,15.0,31.0,84,0.00,-SN,-SN,0.05,WeatherDisplay:10.37,2013-04-18 15:36:00,
2013-04-18 10:42:00,36.3,31.9,29.95,West,281,12.0,16.0,84,0.00,-SN,-SN,0.05,WeatherDisplay:10.37,2013-04-18 15:42:00,
2013-04-18 10:48:00,36.2,31.9,29.94,NW,308,9.0,28.0,84,0.00,-SN,-SN,0.05,WeatherDisplay:10.37,2013-04-18 15:48:00,
2013-04-18 10:54:00,36.4,31.4,29.94,WNW,303,15.0,26.0,82,0.00,-SN,-SN,0.05,WeatherDisplay:10.37,2013-04-18 15:54:00,
2013-04-18 11:00:00,36.4,31.4,29.95,WNW,297,18.0,23.0,82,0.00,-SN,-SN,0.05,WeatherDisplay:10.37,2013-04-18 16:00:00,
2013-04-18 11:06:00,36.2,31.2,29.95,NW,312,13.0,28.0,82,0.00,OVC,OVC,0.05,WeatherDisplay:10.37,2013-04-18 16:06:00,
2013-04-18 11:12:00,36.4,31.1,29.95,NW,304,22.0,26.0,81,0.00,OVC,OVC,0.05,WeatherDisplay:10.37,2013-04-18 16:12:00,
2013-04-18 11:18:00,36.5,31.2,29.95,WNW,286,14.0,23.0,81,0.00,OVC,OVC,0.05,WeatherDisplay:10.37,2013-04-18 16:18:00,
2013-04-18 11:24:00,36.4,31.1,29.95,WNW,295,22.0,28.0,81,0.00,OVC,OVC,0.05,WeatherDisplay:10.37,2013-04-18 16:24:00,
2013-04-18 11:30:00,36.6,31.0,29.95,WNW,299,17.0,28.0,80,0.00,OVC,OVC,0.05,WeatherDisplay:10.37,2013-04-18 16:30:00,
2013-04-18 11:36:00,36.5,30.9,29.95,WNW,293,28.0,28.0,80,0.00,OVC,OVC,0.05,WeatherDisplay:10.37,2013-04-18 16:36:00,
2013-04-18 11:42:00,37.5,31.3,29.95,WNW,298,12.0,21.0,78,0.00,OVC,OVC,0.05,WeatherDisplay:10.37,2013-04-18 16:42:00,
2013-04-18 11:48:00,37.4,30.5,29.95,NW,308,21.0,24.0,76,0.00,OVC,OVC,0.05,WeatherDisplay:10.37,2013-04-18 16:48:00,
2013-04-18 11:54:00,37.1,30.9,29.95,WNW,295,15.0,26.0,78,0.00,OVC,OVC,0.05,WeatherDisplay:10.37,2013-04-18 16:54:00,
2013-04-18 12:00:00,37.7,31.2,29.95,WNW,298,20.0,29.0,77,0.00,OVC,OVC,0.05,WeatherDisplay:10.37,2013-04-18 17:00:00,
2013-04-18 12:06:00,38.2,31.3,29.95,WNW,299,15.0,17.0,76,0.00,OVC,OVC,0.05,WeatherDisplay:10.37,2013-04-18 17:06:00,
2013-04-18 12:12:00,38.3,31.4,29.95,NW,308,12.0,28.0,76,0.00,OVC,OVC,0.05,WeatherDisplay:10.37,2013-04-18 17:12:00,
2013-04-18 12:18:00,37.6,31.1,29.95,NW,313,24.0,32.0,77,0.00,OVC,OVC,0.05,WeatherDisplay:10.37,2013-04-18 17:18:00,
2013-04-18 12:24:00,37.6,31.0,29.95,WNW,290,17.0,21.0,77,0.00,OVC,OVC,0.05,WeatherDisplay:10.37,2013-04-18 17:24:00,
2013-04-18 12:30:00,37.6,30.7,29.95,WNW,295,20.0,23.0,76,0.00,OVC,OVC,0.05,WeatherDisplay:10.37,2013-04-18 17:30:00,
2013-04-18 12:36:00,37.7,30.5,29.95,WNW,303,21.0,26.0,75,0.00,OVC,OVC,0.05,WeatherDisplay:10.37,2013-04-18 17:36:00,
2013-04-18 12:42:00,38.1,30.5,29.95,NW,320,13.0,22.0,74,0.00,OVC,OVC,0.05,WeatherDisplay:10.37,2013-04-18 17:42:00,
2013-04-18 12:48:00,38.2,30.3,29.95,NW,309,14.0,26.0,73,0.00,OVC,OVC,0.05,WeatherDisplay:10.37,2013-04-18 17:48:00,
2013-04-18 12:54:00,37.8,30.9,29.95,NW,307,14.0,21.0,76,0.00,OVC,OVC,0.05,WeatherDisplay:10.37,2013-04-18 17:54:00,
2013-04-18 13:00:00,38.2,31.3,29.95,WNW,294,15.0,15.0,76,0.00,OVC,OVC,0.05,WeatherDisplay:10.37,2013-04-18 18:00:00,
2013-04-18 13:06:00,38.7,30.7,29.95,West,277,10.0,21.0,73,0.00,OVC,OVC,0.05,WeatherDisplay:10.37,2013-04-18 18:06:00,
2013-04-18 13:12:00,39.2,30.2,29.96,WNW,299,15.0,25.0,70,0.00,OVC,OVC,0.05,WeatherDisplay:10.37,2013-04-18 18:12:00,
2013-04-18 13:18:00,39.1,30.1,29.96,WNW,302,20.0,25.0,70,0.00,OVC,OVC,0.05,WeatherDisplay:10.37,2013-04-18 18:18:00,
2013-04-18 13:24:00,38.4,29.8,29.96,NW,307,18.0,30.0,71,0.00,OVC,OVC,0.05,WeatherDisplay:10.37,2013-04-18 18:24:00,
2013-04-18 13:30:00,38.7,30.1,29.95,WNW,299,16.0,23.0,71,0.00,OVC,OVC,0.05,WeatherDisplay:10.37,2013-04-18 18:30:00,
2013-04-18 13:36:00,38.5,29.9,29.95,WNW,294,26.0,31.0,71,0.00,OVC,OVC,0.05,WeatherDisplay:10.37,2013-04-18 18:36:00,
2013-04-18 13:42:00,38.8,30.5,29.96,WNW,302,14.0,19.0,72,0.00,OVC,OVC,0.05,WeatherDisplay:10.37,2013-04-18 18:42:00,
2013-04-18 13:48:00,38.9,30.3,29.96,WNW,303,14.0,28.0,71,0.00,OVC,OVC,0.05,WeatherDisplay:10.37,2013-04-18 18:48:00,
2013-04-18 13:54:00,38.5,29.9,29.96,WNW,301,20.0,29.0,71,0.00,OVC,OVC,0.05,WeatherDisplay:10.37,2013-04-18 18:54:00,
2013-04-18 14:00:00,38.9,29.6,29.96,WNW,287,21.0,26.0,69,0.00,OVC,OVC,0.05,WeatherDisplay:10.37,2013-04-18 19:00:00,
2013-04-18 14:06:00,39.4,30.4,29.97,WNW,283,21.0,28.0,70,0.00,OVC,OVC,0.05,WeatherDisplay:10.37,2013-04-18 19:06:00,
2013-04-18 14:12:00,39.4,30.4,29.97,WNW,291,28.0,28.0,70,0.00,OVC,OVC,0.05,WeatherDisplay:10.37,2013-04-18 19:12:00,
2013-04-18 14:18:00,38.8,30.2,29.97,WNW,292,16.0,28.0,71,0.00,OVC,OVC,0.05,WeatherDisplay:10.37,2013-04-18 19:18:00,
2013-04-18 14:24:00,39.2,29.5,29.97,NW,308,18.0,26.0,68,0.00,OVC,OVC,0.05,WeatherDisplay:10.37,2013-04-18 19:24:00,
2013-04-18 14:30:00,39.2,29.5,29.97,WNW,296,14.0,26.0,68,0.00,OVC,OVC,0.05,WeatherDisplay:10.37,2013-04-18 19:30:00,
2013-04-18 14:36:00,39.2,29.5,29.97,WNW,285,18.0,24.0,68,0.00,OVC,OVC,0.05,WeatherDisplay:10.37,2013-04-18 19:36:00,
2013-04-18 14:42:00,38.5,29.5,29.98,NW,304,22.0,30.0,70,0.00,OVC,OVC,0.05,WeatherDisplay:10.37,2013-04-18 19:42:00,
2013-04-18 14:48:00,39.1,29.4,29.98,NW,309,20.0,26.0,68,0.00,OVC,OVC,0.05,WeatherDisplay:10.37,2013-04-18 19:48:00,
2013-04-18 14:54:00,39.1,29.7,29.97,West,281,16.0,16.0,69,0.00,OVC,OVC,0.05,WeatherDisplay:10.37,2013-04-18 19:54:00,
2013-04-18 15:00:00,38.1,30.2,29.97,West,274,21.0,33.0,73,0.00,OVC,OVC,0.05,WeatherDisplay:10.37,2013-04-18 20:00:00,
2013-04-18 15:06:00,38.2,29.9,29.98,NW,305,15.0,33.0,72,0.00,OVC,OVC,0.05,WeatherDisplay:10.37,2013-04-18 20:06:00,
2013-04-18 15:12:00,38.3,29.3,29.98,NW,312,21.0,33.0,70,0.00,OVC,OVC,0.05,WeatherDisplay:10.37,2013-04-18 20:12:00,
2013-04-18 15:18:00,38.9,29.6,29.98,WNW,299,12.0,21.0,69,0.00,OVC,OVC,0.05,WeatherDisplay:10.37,2013-04-18 20:18:00,
2013-04-18 15:24:00,38.8,29.9,29.99,WNW,294,13.0,16.0,70,0.00,OVC,OVC,0.05,WeatherDisplay:10.37,2013-04-18 20:24:00,
2013-04-18 15:30:00,38.0,30.1,29.99,WNW,295,18.0,26.0,73,0.00,OVC,OVC,0.05,WeatherDisplay:10.37,2013-04-18 20:30:00,
2013-04-18 15:36:00,38.2,28.9,29.99,NW,305,15.0,30.0,69,0.00,OVC,OVC,0.05,WeatherDisplay:10.37,2013-04-18 20:36:00,
2013-04-18 15:42:00,39.2,29.1,29.99,NW,308,14.0,17.0,67,0.00,OVC,OVC,0.05,WeatherDisplay:10.37,2013-04-18 20:42:00,
2013-04-18 15:48:00,38.7,29.0,29.99,NW,316,26.0,26.0,68,0.00,OVC,OVC,0.05,WeatherDisplay:10.37,2013-04-18 20:48:00,
2013-04-18 15:54:00,38.4,29.4,29.99,NNW,331,22.0,26.0,70,0.00,OVC,OVC,0.05,WeatherDisplay:10.37,2013-04-18 20:54:00,
2013-04-18 16:00:00,38.0,29.4,29.99,NW,309,18.0,26.0,71,0.00,OVC,OVC,0.05,WeatherDisplay:10.37,2013-04-18 21:00:00,
2013-04-18 16:06:00,37.8,29.2,29.99,WNW,299,17.0,21.0,71,0.00,OVC,OVC,0.05,WeatherDisplay:10.37,2013-04-18 21:06:00,
2013-04-18 16:12:00,38.1,28.9,29.99,WNW,301,16.0,19.0,69,0.00,OVC,OVC,0.05,WeatherDisplay:10.37,2013-04-18 21:12:00,
2013-04-18 16:18:00,38.0,29.0,29.99,WNW,296,17.0,23.0,70,0.00,OVC,OVC,0.05,WeatherDisplay:10.37,2013-04-18 21:18:00,
2013-04-18 16:24:00,37.8,29.2,29.99,WNW,294,14.0,25.0,71,0.00,OVC,OVC,0.05,WeatherDisplay:10.37,2013-04-18 21:24:00,
2013-04-18 16:30:00,37.8,28.9,29.99,ENE,77,15.0,23.0,70,0.00,OVC,OVC,0.05,WeatherDisplay:10.37,2013-04-18 21:30:00,
2013-04-18 16:36:00,38.4,28.8,29.99,North,5,13.0,22.0,68,0.00,OVC,OVC,0.05,WeatherDisplay:10.37,2013-04-18 21:36:00,
2013-04-18 16:42:00,38.4,28.4,29.99,NW,316,12.0,23.0,67,0.00,OVC,OVC,0.05,WeatherDisplay:10.37,2013-04-18 21:42:00,
2013-04-18 16:48:00,38.3,28.6,29.99,NW,308,20.0,22.0,68,0.00,OVC,OVC,0.05,WeatherDisplay:10.37,2013-04-18 21:48:00,
2013-04-18 16:54:00,38.5,28.4,29.99,WNW,298,18.0,23.0,67,0.00,OVC,OVC,0.05,WeatherDisplay:10.37,2013-04-18 21:54:00,
2013-04-18 17:00:00,38.5,28.4,29.99,WNW,303,14.0,16.0,67,0.00,OVC,OVC,0.05,WeatherDisplay:10.37,2013-04-18 22:00:00,
2013-04-18 17:06:00,38.5,28.4,30.00,WNW,296,17.0,26.0,67,0.00,OVC,OVC,0.05,WeatherDisplay:10.37,2013-04-18 22:06:00,
2013-04-18 17:12:00,38.5,28.4,30.00,NNW,328,30.0,30.0,67,0.00,OVC,OVC,0.05,WeatherDisplay:10.37,2013-04-18 22:12:00,
2013-04-18 17:18:00,38.2,28.5,30.00,NNW,327,13.0,26.0,68,0.00,OVC,OVC,0.05,WeatherDisplay:10.37,2013-04-18 22:18:00,
2013-04-18 17:24:00,37.8,27.8,30.00,WNW,299,24.0,35.0,67,0.00,OVC,OVC,0.05,WeatherDisplay:10.37,2013-04-18 22:24:00,
2013-04-18 17:30:00,38.0,28.3,30.01,WNW,302,15.0,20.0,68,0.00,OVC,OVC,0.05,WeatherDisplay:10.37,2013-04-18 22:30:00,
2013-04-18 17:36:00,38.0,28.3,30.01,WNW,295,17.0,20.0,68,0.00,OVC,OVC,0.05,WeatherDisplay:10.37,2013-04-18 22:36:00,
2013-04-18 17:42:00,38.0,27.6,30.02,WNW,301,10.0,26.0,66,0.00,OVC,OVC,0.05,WeatherDisplay:10.37,2013-04-18 22:42:00,
2013-04-18 17:48:00,37.8,27.0,30.02,NW,310,9.0,18.0,65,0.00,OVC,OVC,0.05,WeatherDisplay:10.37,2013-04-18 22:48:00,
2013-04-18 17:54:00,38.0,27.6,30.02,WNW,302,15.0,18.0,66,0.00,OVC,OVC,0.05,WeatherDisplay:10.37,2013-04-18 22:54:00,
2013-04-18 18:00:00,38.0,27.6,30.02,WNW,294,12.0,18.0,66,0.00,OVC,OVC,0.05,WeatherDisplay:10.37,2013-04-18 23:00:00,
2013-04-18 18:06:00,37.8,27.4,30.02,NW,309,12.0,14.0,66,0.00,OVC,OVC,0.05,WeatherDisplay:10.37,2013-04-18 23:06:00,
2013-04-18 18:12:00,38.0,27.6,30.02,NW,319,12.0,16.0,66,0.00,OVC,OVC,0.05,WeatherDisplay:10.37,2013-04-18 23:12:00,
2013-04-18 18:18:00,37.8,27.4,30.02,WNW,291,13.0,16.0,66,0.00,OVC,OVC,0.05,WeatherDisplay:10.37,2013-04-18 23:18:00,
2013-04-18 18:24:00,37.8,27.4,30.02,West,278,16.0,25.0,66,0.00,OVC,OVC,0.05,WeatherDisplay:10.37,2013-04-18 23:24:00,
2013-04-18 18:30:00,38.2,27.8,30.02,WNW,291,16.0,21.0,66,0.00,OVC,OVC,0.05,WeatherDisplay:10.37,2013-04-18 23:30:00,
2013-04-18 18:36:00,38.2,27.8,30.02,WNW,290,14.0,14.0,66,0.00,OVC,OVC,0.05,WeatherDisplay:10.37,2013-04-18 23:36:00,
2013-04-18 18:42:00,38.0,27.6,30.02,WNW,291,13.0,17.0,66,0.00,OVC,OVC,0.05,WeatherDisplay:10.37,2013-04-18 23:42:00,
2013-04-18 18:48:00,38.0,27.6,30.02,NW,308,13.0,18.0,66,0.00,OVC,OVC,0.05,WeatherDisplay:10.37,2013-04-18 23:48:00,
2013-04-18 18:54:00,38.2,27.4,30.03,WNW,300,10.0,25.0,65,0.00,OVC,OVC,0.05,WeatherDisplay:10.37,2013-04-18 23:54:00,
2013-04-18 19:00:00,38.2,27.8,30.03,WNW,292,9.0,15.0,66,0.00,OVC,OVC,0.05,WeatherDisplay:10.37,2013-04-19 00:00:00,
2013-04-18 19:06:00,38.0,27.6,30.03,WNW,303,12.0,18.0,66,0.00,OVC,OVC,0.05,WeatherDisplay:10.37,2013-04-19 00:06:00,
2013-04-18 19:12:00,38.0,27.2,30.03,NW,313,12.0,17.0,65,0.00,OVC,OVC,0.05,WeatherDisplay:10.37,2013-04-19 00:12:00,
2013-04-18 19:18:00,38.0,27.2,30.03,WNW,296,7.0,7.0,65,0.00,OVC,OVC,0.05,WeatherDisplay:10.37,2013-04-19 00:18:00,
2013-04-18 19:24:00,37.8,27.8,30.03,WNW,287,9.0,16.0,67,0.00,OVC,OVC,0.05,WeatherDisplay:10.37,2013-04-19 00:24:00,
2013-04-18 19:30:00,37.8,28.1,30.03,WNW,289,15.0,18.0,68,0.00,OVC,OVC,0.05,WeatherDisplay:10.37,2013-04-19 00:30:00,
2013-04-18 19:36:00,37.4,27.4,30.03,WNW,300,14.0,25.0,67,0.00,OVC,OVC,0.05,WeatherDisplay:10.37,2013-04-19 00:36:00,
2013-04-18 19:42:00,37.4,27.4,30.04,WNW,303,10.0,22.0,67,0.00,OVC,OVC,0.05,WeatherDisplay:10.37,2013-04-19 00:42:00,
2013-04-18 19:48:00,37.4,27.4,30.04,WNW,301,14.0,16.0,67,0.00,OVC,OVC,0.05,WeatherDisplay:10.37,2013-04-19 00:48:00,
2013-04-18 19:54:00,37.4,27.0,30.04,WNW,293,14.0,18.0,66,0.00,OVC,OVC,0.05,WeatherDisplay:10.37,2013-04-19 00:54:00,
2013-04-18 20:00:00,37.3,26.6,30.04,WNW,288,7.0,18.0,65,0.00,OVC,OVC,0.05,WeatherDisplay:10.37,2013-04-19 01:00:00,
2013-04-18 20:06:00,37.3,26.6,30.05,WNW,294,12.0,18.0,65,0.00,OVC,OVC,0.05,WeatherDisplay:10.37,2013-04-19 01:06:00,
2013-04-18 20:12:00,37.1,26.4,30.05,WNW,289,14.0,20.0,65,0.00,OVC,OVC,0.05,WeatherDisplay:10.37,2013-04-19 01:12:00,
2013-04-18 20:18:00,36.9,26.6,30.05,WNW,298,12.0,16.0,66,0.00,OVC,OVC,0.05,WeatherDisplay:10.37,2013-04-19 01:18:00,
2013-04-18 20:24:00,36.9,26.6,30.05,WNW,297,12.0,23.0,66,0.00,OVC,OVC,0.05,WeatherDisplay:10.37,2013-04-19 01:24:00,
2013-04-18 20:30:00,36.9,26.6,30.05,WNW,295,16.0,16.0,66,0.00,OVC,OVC,0.05,WeatherDisplay:10.37,2013-04-19 01:30:00,
2013-04-18 20:36:00,36.7,26.7,30.05,WNW,289,10.0,16.0,67,0.00,OVC,OVC,0.05,WeatherDisplay:10.37,2013-04-19 01:36:00,
2013-04-18 20:42:00,36.7,26.7,30.06,WNW,293,12.0,17.0,67,0.00,OVC,OVC,0.05,WeatherDisplay:10.37,2013-04-19 01:42:00,
2013-04-18 20:48:00,36.7,26.7,30.06,WNW,292,16.0,18.0,67,0.00,OVC,OVC,0.05,WeatherDisplay:10.37,2013-04-19 01:48:00,
2013-04-18 20:54:00,36.7,26.7,30.06,WNW,286,12.0,16.0,67,0.00,OVC,OVC,0.05,WeatherDisplay:10.37,2013-04-19 01:54:00,
2013-04-18 21:00:00,36.5,26.5,30.06,WNW,291,8.0,20.0,67,0.00,OVC,OVC,0.05,WeatherDisplay:10.37,2013-04-19 02:00:00,
2013-04-18 21:06:00,36.5,26.5,30.06,WNW,296,10.0,17.0,67,0.00,BKN,BKN,0.05,WeatherDisplay:10.37,2013-04-19 02:06:00,
2013-04-18 21:12:00,36.5,26.5,30.06,NW,310,10.0,16.0,67,0.00,BKN,BKN,0.05,WeatherDisplay:10.37,2013-04-19 02:12:00,
2013-04-18 21:18:00,36.4,26.4,30.07,WNW,299,12.0,16.0,67,0.00,BKN,BKN,0.05,WeatherDisplay:10.37,2013-04-19 02:18:00,
2013-04-18 21:24:00,36.4,26.4,30.07,WNW,295,12.0,16.0,67,0.00,BKN,BKN,0.05,WeatherDisplay:10.37,2013-04-19 02:24:00,
2013-04-18 21:30:00,36.4,26.4,30.07,WNW,291,8.0,12.0,67,0.00,BKN,BKN,0.05,WeatherDisplay:10.37,2013-04-19 02:30:00,
2013-04-18 21:36:00,36.4,26.1,30.07,WNW,303,12.0,15.0,66,0.00,BKN,BKN,0.05,WeatherDisplay:10.37,2013-04-19 02:36:00,
2013-04-18 21:42:00,36.3,26.1,30.07,WNW,282,12.0,19.0,66,0.00,BKN,BKN,0.05,WeatherDisplay:10.37,2013-04-19 02:42:00,
2013-04-18 21:48:00,35.8,25.5,30.07,WNW,288,9.0,17.0,66,0.00,BKN,BKN,0.05,WeatherDisplay:10.37,2013-04-19 02:48:00,
2013-04-18 21:54:00,35.6,25.3,30.08,WNW,300,9.0,16.0,66,0.00,BKN,BKN,0.05,WeatherDisplay:10.37,2013-04-19 02:54:00,
2013-04-18 22:00:00,35.3,25.4,30.08,WNW,296,9.0,16.0,67,0.00,BKN,BKN,0.05,WeatherDisplay:10.37,2013-04-19 03:00:00,
2013-04-18 22:06:00,35.1,25.2,30.08,WNW,301,8.0,16.0,67,0.00,SCT,SCT,0.05,WeatherDisplay:10.37,2013-04-19 03:06:00,
2013-04-18 22:12:00,34.9,25.4,30.08,NW,305,6.0,10.0,68,0.00,SCT,SCT,0.05,WeatherDisplay:10.37,2013-04-19 03:12:00,
2013-04-18 22:18:00,34.6,25.4,30.08,NW,306,12.0,13.0,69,0.00,SCT,SCT,0.05,WeatherDisplay:10.37,2013-04-19 03:18:00,
2013-04-18 22:24:00,34.2,25.7,30.08,NW,312,10.0,16.0,71,0.00,SCT,SCT,0.05,WeatherDisplay:10.37,2013-04-19 03:24:00,
2013-04-18 22:30:00,33.8,25.7,30.08,WNW,302,7.0,9.0,72,0.00,SCT,SCT,0.05,WeatherDisplay:10.37,2013-04-19 03:30:00,
2013-04-18 22:36:00,33.5,25.4,30.08,WNW,298,7.0,10.0,72,0.00,SCT,SCT,0.05,WeatherDisplay:10.37,2013-04-19 03:36:00,
2013-04-18 22:42:00,33.3,25.5,30.08,NW,306,6.0,8.0,73,0.00,SCT,SCT,0.05,WeatherDisplay:10.37,2013-04-19 03:42:00,
2013-04-18 22:48:00,33.1,26.0,30.08,NW,307,7.0,7.0,75,0.00,SCT,SCT,0.05,WeatherDisplay:10.37,2013-04-19 03:48:00,
2013-04-18 22:54:00,32.9,25.8,30.08,NW,304,8.0,10.0,75,0.00,SCT,SCT,0.05,WeatherDisplay:10.37,2013-04-19 03:54:00,
2013-04-18 23:00:00,32.8,26.0,30.08,NW,305,8.0,9.0,76,0.00,SCT,SCT,0.05,WeatherDisplay:10.37,2013-04-19 04:00:00,
2013-04-18 23:03:00,32.6,25.8,30.08,WNW,300,7.0,7.0,76,0.00,BKN,BKN,0.05,WeatherDisplay:10.37,2013-04-19 04:03:00,
2013-04-18 23:06:00,32.6,26.1,30.08,WNW,292,9.0,12.0,77,0.00,BKN,BKN,0.05,WeatherDisplay:10.37,2013-04-19 04:06:00,
2013-04-18 23:09:00,32.3,26.2,30.08,WNW,293,8.0,9.0,78,0.00,BKN,BKN,0.05,WeatherDisplay:10.37,2013-04-19 04:09:00,
2013-04-18 23:12:00,32.2,26.1,30.08,WNW,292,7.0,9.0,78,0.00,BKN,BKN,0.05,WeatherDisplay:10.37,2013-04-19 04:12:00,
2013-04-18 23:15:00,32.2,26.1,30.08,WNW,294,7.0,9.0,78,0.00,BKN,BKN,0.05,WeatherDisplay:10.37,2013-04-19 04:15:00,
2013-04-18 23:21:00,32.4,26.0,30.08,WNW,295,8.0,12.0,77,0.00,BKN,BKN,0.05,WeatherDisplay:10.37,2013-04-19 04:21:00,
2013-04-18 23:27:00,32.4,26.0,30.08,WNW,295,8.0,12.0,77,0.00,BKN,BKN,0.05,WeatherDisplay:10.37,2013-04-19 04:27:00,
2013-04-18 23:33:00,32.2,25.8,30.08,WNW,288,8.0,12.0,77,0.00,BKN,BKN,0.05,WeatherDisplay:10.37,2013-04-19 04:33:00,
2013-04-18 23:39:00,31.9,26.1,30.08,NW,306,7.0,10.0,79,0.00,BKN,BKN,0.05,WeatherDisplay:10.37,2013-04-19 04:39:00,
2013-04-18 23:45:00,31.7,25.9,30.08,NW,309,10.0,14.0,79,0.00,BKN,BKN,0.05,WeatherDisplay:10.37,2013-04-19 04:45:00,
2013-04-18 23:51:00,31.7,25.9,30.08,NNW,328,7.0,7.0,79,0.00,BKN,BKN,0.05,WeatherDisplay:10.37,2013-04-19 04:51:00,
2013-04-18 23:57:00,31.7,25.9,30.08,NW,318,10.0,14.0,79,0.00,BKN,BKN,0.05,WeatherDisplay:10.37,2013-04-19 04:57:00,